METAR AND TAF INFORMATION
METAR FOR LEDA
ADDS - METARS form results

(1556 UTC 05 August 2020)
Data provider http://aviationweather.gov/metar/data/
 
METAR text: LEDA 051530Z AUTO 24005KT 190V280 CAVOK 31/05 Q1013
Conditions at: LEDA (LLEIDA-ALGUAIRE , ES) observed 1530 UTC 05 August 2020
Temperature: 31.0°C (88°F)
Dewpoint: 5.0°C (41°F) [RH = 19%]
Pressure (altimeter): 29.91 inches Hg (1013.0 mb)
Winds: from the WSW (240 degrees) at 6 MPH (5 knots; 2.6 m/s)
Visibility: 6 or more miles (10+ km)
Ceiling: ceiling and visibility are OK
Clouds: unknown
Weather: no significant weather observed at this time

METAR text: LEDA 051500Z AUTO 24004KT CAVOK 30/05 Q1013
Conditions at: LEDA (LLEIDA-ALGUAIRE , ES) observed 1500 UTC 05 August 2020
Temperature: 30.0°C (86°F)
Dewpoint: 5.0°C (41°F) [RH = 21%]
Pressure (altimeter): 29.91 inches Hg (1013.0 mb)
Winds: from the WSW (240 degrees) at 5 MPH (4 knots; 2.1 m/s)
Visibility: 6 or more miles (10+ km)
Ceiling: ceiling and visibility are OK
Clouds: unknown
Weather: no significant weather observed at this time

 AIRPORT MAP

 RUNWAY INFORMATION

 AIRPORT FREQUENCIES

 AIRPORT NEAR NAVIGATION AIDS



Powered by Virtual Airlines Manager [v2.6.2]